Time;durP1;ratioP1;P1;durP2;ratioP2;P2;SDS_P1;SDS_P2;PMS_P1;PMS_P2;Temp;Humidity;BMP_temperature;BMP_pressure;BME280_temperature;BME280_humidity;BME280_pressure;Samples;Min_cycle;Max_cycle;Signal;HPM_P1;HPM_P2
2021/09/23 00:01:30;;;;;;;25.50;13.00;;;;;;;8.15;69.38;99444.05;112908;1195;106091;-71
2021/09/23 00:06:44;;;;;;;25.70;12.00;;;;;;;8.14;69.49;99441.83;112902;1195;97660;-70
2021/09/23 00:09:12;;;;;;;25.50;12.70;;;;;;;8.14;69.28;99441.62;112894;1196;110677;-71
2021/09/23 00:11:40;;;;;;;27.90;13.50;;;;;;;8.16;69.63;99443.84;112834;1183;97580;-70
2021/09/23 00:14:08;;;;;;;25.20;12.30;;;;;;;8.14;69.66;99445.34;112891;1195;107486;-69
2021/09/23 00:16:37;;;;;;;27.50;13.00;;;;;;;8.14;69.52;99445.14;112714;1195;97535;-70
2021/09/23 00:19:05;;;;;;;26.60;13.60;;;;;;;8.16;69.58;99440.48;112969;1196;95790;-69
2021/09/23 00:21:34;;;;;;;27.10;12.90;;;;;;;8.17;69.63;99440.05;113020;1195;111330;-69
2021/09/23 00:24:02;;;;;;;26.80;12.90;;;;;;;8.16;69.56;99436.56;112815;1196;99210;-70
2021/09/23 00:26:29;;;;;;;27.90;13.40;;;;;;;8.16;69.70;99436.39;113178;1195;108151;-69
2021/09/23 00:28:57;;;;;;;25.00;12.40;;;;;;;8.16;69.57;99431.59;112947;1195;97663;-70
2021/09/23 00:31:25;;;;;;;25.10;13.10;;;;;;;8.17;69.80;99430.30;112975;1195;97671;-71
2021/09/23 00:33:54;;;;;;;27.00;13.50;;;;;;;8.17;69.75;99429.60;113041;1195;111696;-71
2021/09/23 00:36:22;;;;;;;27.80;13.50;;;;;;;8.17;69.99;99429.94;112847;1196;97582;-70
2021/09/23 00:38:51;;;;;;;26.90;13.30;;;;;;;8.15;69.91;99427.99;113011;1195;108068;-71
2021/09/23 00:41:21;;;;;;;27.20;12.70;;;;;;;8.14;69.99;99428.90;113059;1195;97628;-71
2021/09/23 00:43:49;;;;;;;26.50;13.30;;;;;;;8.14;70.06;99429.06;112953;1195;95485;-71
2021/09/23 00:46:18;;;;;;;25.40;13.20;;;;;;;8.14;69.85;99428.20;112697;1196;111125;-70
2021/09/23 00:48:49;;;;;;;27.60;14.00;;;;;;;8.14;70.12;99429.83;113060;1196;97680;-71
2021/09/23 00:51:18;;;;;;;24.70;12.80;;;;;;;8.12;70.27;99439.09;113059;1195;107225;-70
2021/09/23 00:53:46;;;;;;;25.60;13.60;;;;;;;8.11;70.11;99434.58;113000;1195;97620;-69
2021/09/23 00:56:15;;;;;;;24.90;12.80;;;;;;;8.11;70.07;99430.69;112957;1196;97610;-70
2021/09/23 00:58:43;;;;;;;25.20;13.30;;;;;;;8.11;70.10;99427.84;113053;1195;111229;-70
2021/09/23 01:01:13;;;;;;;24.90;13.40;;;;;;;8.10;70.24;99423.48;113049;1195;97653;-70
2021/09/23 01:03:41;;;;;;;27.00;14.20;;;;;;;8.10;70.08;99418.52;112819;1197;107316;-69
2021/09/23 01:06:10;;;;;;;29.20;14.10;;;;;;;8.11;70.25;99419.19;112757;1196;97659;-70
2021/09/23 01:08:39;;;;;;;28.60;14.00;;;;;;;8.11;70.37;99416.20;112968;1197;97691;-70
2021/09/23 01:11:06;;;;;;;29.10;14.50;;;;;;;8.10;70.08;99412.55;112899;1196;111246;-70
2021/09/23 01:13:34;;;;;;;28.80;14.10;;;;;;;8.09;70.18;99411.39;112654;1197;97509;-69
2021/09/23 01:16:02;;;;;;;25.60;13.60;;;;;;;8.07;70.79;99411.13;112608;1196;107546;-69
2021/09/23 01:18:30;;;;;;;28.20;15.30;;;;;;;8.05;70.39;99410.31;112691;1197;95801;-70
2021/09/23 01:20:58;;;;;;;27.70;14.60;;;;;;;8.04;70.46;99407.02;113032;1197;95794;-70
2021/09/23 01:23:26;;;;;;;30.40;14.40;;;;;;;8.03;70.48;99404.10;112794;1196;111118;-71
2021/09/23 01:25:54;;;;;;;29.50;14.40;;;;;;;8.03;70.34;99401.10;112646;1196;97532;-70
2021/09/23 01:28:22;;;;;;;24.20;12.10;;;;;;;8.02;70.53;99401.65;112956;1196;107588;-69
2021/09/23 01:30:50;;;;;;;26.70;13.00;;;;;;;8.02;70.93;99403.10;112992;1197;97663;-69
2021/09/23 01:33:18;;;;;;;26.60;13.70;;;;;;;7.99;70.68;99404.84;112968;1196;97559;-72
2021/09/23 01:35:46;;;;;;;27.30;13.60;;;;;;;7.98;70.52;99404.55;112976;1196;110693;-73
2021/09/23 01:38:14;;;;;;;28.60;14.20;;;;;;;7.98;70.61;99405.97;112957;1197;98287;-71
2021/09/23 01:40:42;;;;;;;28.80;13.70;;;;;;;7.97;70.79;99400.38;113004;1196;107083;-71
2021/09/23 01:43:09;;;;;;;29.70;14.20;;;;;;;7.97;70.88;99402.13;112976;1196;97603;-70
2021/09/23 01:45:37;;;;;;;26.10;12.50;;;;;;;7.98;70.68;99402.78;112989;1198;96487;-71
2021/09/23 01:48:05;;;;;;;28.10;13.30;;;;;;;7.99;70.73;99402.91;112985;1196;111145;-72
2021/09/23 01:50:33;;;;;;;26.40;13.50;;;;;;;7.99;70.79;99402.73;113002;1195;97662;-70
2021/09/23 01:53:01;;;;;;;25.40;13.40;;;;;;;7.99;70.85;99398.65;112738;1196;107648;-70
2021/09/23 01:55:29;;;;;;;26.80;13.00;;;;;;;8.00;71.04;99396.65;112951;1196;98325;-70
2021/09/23 01:57:57;;;;;;;27.70;13.60;;;;;;;8.00;71.03;99390.09;113100;1195;95717;-70
2021/09/23 02:00:26;;;;;;;25.90;12.30;;;;;;;8.02;71.02;99389.13;113086;1195;110977;-72
2021/09/23 02:02:54;;;;;;;29.10;14.80;;;;;;;8.03;70.98;99383.95;113127;1195;97536;-70
2021/09/23 02:05:23;;;;;;;27.90;15.00;;;;;;;8.03;71.08;99384.98;113143;1195;107484;-70
2021/09/23 02:07:51;;;;;;;26.20;13.40;;;;;;;8.03;71.27;99387.29;113145;1195;97506;-71
2021/09/23 02:10:19;;;;;;;26.30;13.00;;;;;;;8.04;71.49;99389.02;113177;1195;97551;-71
2021/09/23 02:12:47;;;;;;;29.30;13.90;;;;;;;8.04;71.42;99384.45;112998;1197;110191;-70
2021/09/23 02:15:15;;;;;;;25.80;13.70;;;;;;;8.04;71.27;99383.16;113043;1196;98773;-70
2021/09/23 02:17:44;;;;;;;26.50;12.40;;;;;;;8.06;71.69;99379.18;113026;1196;107471;-70
2021/09/23 02:20:13;;;;;;;27.60;13.90;;;;;;;8.07;71.41;99376.67;113030;1196;95867;-69
2021/09/23 02:22:41;;;;;;;26.80;13.60;;;;;;;8.09;71.40;99376.23;112645;1197;97579;-70
2021/09/23 02:25:10;;;;;;;28.70;14.50;;;;;;;8.11;71.49;99371.86;112997;1196;110203;-70
2021/09/23 02:27:39;;;;;;;29.00;15.70;;;;;;;8.12;71.43;99365.95;113108;1196;97594;-70
2021/09/23 02:30:09;;;;;;;28.00;15.00;;;;;;;8.15;71.50;99363.16;112784;1197;108073;-70
2021/09/23 02:32:37;;;;;;;29.00;14.80;;;;;;;8.17;71.41;99356.52;113221;1195;95135;-69
2021/09/23 02:35:06;;;;;;;26.90;14.70;;;;;;;8.17;71.52;99349.95;113118;1195;97590;-70
2021/09/23 02:37:36;;;;;;;30.50;16.30;;;;;;;8.19;71.52;99348.08;113140;1195;111166;-70
2021/09/23 02:40:07;;;;;;;31.30;14.70;;;;;;;8.21;71.62;99345.33;113088;1196;98023;-70
2021/09/23 02:42:37;;;;;;;27.60;15.60;;;;;;;8.23;71.54;99347.52;112926;1197;107521;-69
2021/09/23 02:45:06;;;;;;;31.70;17.00;;;;;;;8.25;71.86;99342.60;112771;1197;97640;-71
2021/09/23 02:47:34;;;;;;;32.00;16.20;;;;;;;8.25;71.78;99341.52;113098;1196;95131;-70
2021/09/23 02:50:05;;;;;;;30.50;16.10;;;;;;;8.27;72.02;99334.53;113082;1197;111229;-70
2021/09/23 02:52:33;;;;;;;29.90;15.60;;;;;;;8.29;71.85;99337.61;113077;1196;97625;-70
2021/09/23 02:55:01;;;;;;;28.70;16.40;;;;;;;8.31;71.92;99336.27;113037;1196;107458;-70
2021/09/23 02:57:29;;;;;;;27.30;14.30;;;;;;;8.32;71.69;99330.20;113023;1196;95032;-68
2021/09/23 02:59:56;;;;;;;28.10;14.90;;;;;;;8.33;71.82;99332.58;113017;1198;97564;-70
2021/09/23 03:02:24;;;;;;;27.70;14.80;;;;;;;8.34;71.98;99333.58;113001;1196;111105;-70
2021/09/23 03:04:53;;;;;;;29.50;14.90;;;;;;;8.34;71.93;99334.44;113074;1195;95020;-70
2021/09/23 03:07:23;;;;;;;28.40;14.40;;;;;;;8.36;71.90;99336.63;113096;1195;107877;-70
2021/09/23 03:09:50;;;;;;;29.20;15.40;;;;;;;8.38;72.08;99328.79;112999;1196;97671;-69
2021/09/23 03:12:19;;;;;;;25.80;14.30;;;;;;;8.38;72.02;99324.85;113105;1195;97661;-71
2021/09/23 03:14:49;;;;;;;28.20;15.10;;;;;;;8.40;72.00;99324.27;113067;1198;110749;-70
2021/09/23 03:17:17;;;;;;;24.50;13.30;;;;;;;8.41;72.22;99319.23;113071;1197;97560;-72
2021/09/23 03:19:45;;;;;;;26.00;13.20;;;;;;;8.43;72.24;99316.84;113139;1195;108071;-69
2021/09/23 03:22:17;;;;;;;27.20;13.80;;;;;;;8.42;72.34;99314.95;113036;1196;97711;-70
2021/09/23 03:24:47;;;;;;;28.90;13.40;;;;;;;8.42;72.21;99312.30;113070;1196;97641;-70
2021/09/23 03:27:17;;;;;;;26.10;13.40;;;;;;;8.41;72.41;99307.02;113166;1195;111237;-69
2021/09/23 03:29:46;;;;;;;22.80;12.00;;;;;;;8.41;72.26;99305.61;113130;1200;97511;-71
2021/09/23 03:32:14;;;;;;;26.80;11.90;;;;;;;8.41;72.28;99306.67;113071;1197;107485;-71
2021/09/23 03:34:43;;;;;;;25.20;12.20;;;;;;;8.42;72.30;99309.79;113072;1196;95074;-70
2021/09/23 03:37:11;;;;;;;25.80;12.90;;;;;;;8.44;72.28;99310.22;113046;1196;97568;-72
2021/09/23 03:39:38;;;;;;;26.20;13.40;;;;;;;8.45;72.43;99313.67;113035;1195;110925;-70
2021/09/23 03:42:06;;;;;;;26.70;13.50;;;;;;;8.46;72.54;99312.02;113171;1195;97564;-71
2021/09/23 03:44:34;;;;;;;26.80;13.30;;;;;;;8.46;72.29;99310.61;112633;1196;107509;-70
2021/09/23 03:47:02;;;;;;;26.00;13.60;;;;;;;8.47;72.36;99305.98;113023;1195;97548;-70
2021/09/23 03:49:30;;;;;;;25.40;12.60;;;;;;;8.47;72.61;99302.95;113083;1195;97531;-70
2021/09/23 03:51:59;;;;;;;25.50;12.90;;;;;;;8.47;72.37;99302.78;113030;1195;111841;-70
2021/09/23 03:54:27;;;;;;;26.10;12.60;;;;;;;8.49;72.37;99301.81;113067;1195;97666;-70
2021/09/23 03:56:55;;;;;;;26.60;13.50;;;;;;;8.52;72.57;99298.29;113024;1195;108025;-70
2021/09/23 03:59:23;;;;;;;27.90;14.50;;;;;;;8.54;72.59;99298.17;113058;1195;97537;-69
2021/09/23 04:01:51;;;;;;;29.00;15.30;;;;;;;8.56;72.61;99303.53;112818;1197;97802;-69
2021/09/23 04:04:20;;;;;;;28.70;13.90;;;;;;;8.57;72.63;99307.90;113135;1195;111779;-70
2021/09/23 04:06:48;;;;;;;27.70;14.70;;;;;;;8.57;72.49;99309.32;113110;1195;97672;-70
2021/09/23 04:09:16;;;;;;;28.30;15.70;;;;;;;8.58;72.63;99311.86;113090;1195;107473;-69
2021/09/23 04:11:44;;;;;;;28.40;15.40;;;;;;;8.60;72.83;99308.77;113147;1194;97657;-69
2021/09/23 04:14:12;;;;;;;31.80;15.00;;;;;;;8.61;72.76;99312.23;113135;1195;95109;-69
2021/09/23 04:16:40;;;;;;;30.90;16.10;;;;;;;8.61;72.94;99311.50;113177;1195;111774;-69
2021/09/23 04:19:08;;;;;;;29.20;15.20;;;;;;;8.62;72.85;99314.61;113151;1195;97665;-69
2021/09/23 04:21:37;;;;;;;30.80;16.50;;;;;;;8.64;72.79;99316.45;113101;1195;105646;-70
2021/09/23 04:24:04;;;;;;;29.60;15.80;;;;;;;8.67;72.78;99320.55;113172;1195;97663;-71
2021/09/23 04:26:32;;;;;;;31.70;16.10;;;;;;;8.71;72.90;99322.27;113215;1195;97606;-71
2021/09/23 04:29:01;;;;;;;33.60;18.40;;;;;;;8.72;72.80;99318.48;113204;1195;111160;-71
2021/09/23 04:31:29;;;;;;;31.30;17.90;;;;;;;8.73;72.64;99318.59;113200;1195;97569;-71
2021/09/23 04:33:58;;;;;;;31.90;18.30;;;;;;;8.75;72.87;99318.69;113202;1195;107472;-69
2021/09/23 04:36:26;;;;;;;35.00;20.60;;;;;;;8.76;72.84;99323.36;113197;1195;97583;-68
2021/09/23 04:38:54;;;;;;;32.80;19.00;;;;;;;8.78;72.98;99327.48;113179;1195;95738;-70
2021/09/23 04:41:23;;;;;;;32.80;19.60;;;;;;;8.80;73.06;99328.59;113185;1196;111172;-71
2021/09/23 04:43:50;;;;;;;34.10;19.40;;;;;;;8.83;73.17;99331.95;113025;1196;96065;-70
2021/09/23 04:46:21;;;;;;;34.60;19.30;;;;;;;8.85;73.12;99335.91;112992;1188;106487;-69
2021/09/23 04:48:52;;;;;;;34.50;19.90;;;;;;;8.87;73.17;99336.32;112978;1196;97588;-73
2021/09/23 04:51:23;;;;;;;33.10;19.10;;;;;;;8.88;73.04;99336.06;113066;1195;96111;-71
2021/09/23 04:53:55;;;;;;;37.20;20.80;;;;;;;8.90;73.19;99334.70;113027;1195;111221;-71
2021/09/23 04:56:23;;;;;;;35.80;19.50;;;;;;;8.93;73.16;99323.92;113094;1197;97630;-71
2021/09/23 04:58:53;;;;;;;35.00;18.40;;;;;;;8.96;73.09;99322.33;112835;1196;107497;-70
2021/09/23 05:01:20;;;;;;;33.10;19.00;;;;;;;8.97;73.07;99321.51;113112;1200;99425;-71
2021/09/23 05:03:49;;;;;;;34.00;19.10;;;;;;;8.99;73.18;99322.10;113101;1196;97666;-70
2021/09/23 05:06:18;;;;;;;32.60;18.40;;;;;;;8.99;73.10;99324.22;113081;1195;111128;-70
2021/09/23 05:08:46;;;;;;;33.30;19.90;;;;;;;9.00;73.19;99320.30;113064;1195;95536;-70
2021/09/23 05:11:14;;;;;;;33.90;18.20;;;;;;;9.02;73.19;99324.93;113026;1196;107573;-70
2021/09/23 05:13:42;;;;;;;32.60;19.00;;;;;;;9.04;73.20;99324.66;113042;1195;98259;-70
2021/09/23 05:16:10;;;;;;;36.30;19.70;;;;;;;9.06;73.28;99326.44;113050;1195;97590;-71
2021/09/23 05:18:40;;;;;;;34.90;20.20;;;;;;;9.09;73.33;99325.77;113056;1195;111171;-71
2021/09/23 05:21:08;;;;;;;33.60;19.90;;;;;;;9.11;73.42;99323.86;113052;1195;97613;-70
2021/09/23 05:23:36;;;;;;;36.90;20.80;;;;;;;9.13;73.26;99327.50;113054;1198;107462;-71
2021/09/23 05:26:05;;;;;;;37.80;20.10;;;;;;;9.15;73.27;99325.59;112738;1197;97663;-70
2021/09/23 05:28:33;;;;;;;36.90;19.80;;;;;;;9.17;73.25;99319.40;113087;1195;98381;-70
2021/09/23 05:31:01;;;;;;;38.50;22.40;;;;;;;9.20;73.30;99317.48;113020;1195;110766;-70
2021/09/23 05:33:29;;;;;;;38.20;20.70;;;;;;;9.22;73.30;99315.77;112934;1196;96581;-70
2021/09/23 05:35:57;;;;;;;36.20;20.90;;;;;;;9.23;73.35;99315.63;112867;1196;107402;-70
2021/09/23 05:38:25;;;;;;;37.60;22.20;;;;;;;9.26;73.48;99318.69;113096;1195;97668;-69
2021/09/23 05:40:53;;;;;;;39.70;23.10;;;;;;;9.28;73.43;99322.10;113140;1195;97564;-70
2021/09/23 05:43:21;;;;;;;39.90;21.60;;;;;;;9.31;73.54;99322.08;113186;1195;110915;-70
2021/09/23 05:45:49;;;;;;;36.30;21.70;;;;;;;9.34;73.60;99316.42;113209;1195;97645;-71
2021/09/23 05:48:17;;;;;;;38.10;22.00;;;;;;;9.36;73.52;99316.45;113140;1195;107594;-71
2021/09/23 05:50:45;;;;;;;38.90;22.30;;;;;;;9.36;73.58;99315.56;113137;1195;97652;-70
2021/09/23 05:53:13;;;;;;;39.80;23.90;;;;;;;9.37;73.59;99318.33;112953;1196;97582;-70
2021/09/23 05:55:41;;;;;;;38.30;24.00;;;;;;;9.38;73.73;99313.48;113154;1195;111295;-70
2021/09/23 05:58:09;;;;;;;40.90;25.90;;;;;;;9.40;73.64;99307.20;113189;1195;95780;-70
2021/09/23 06:00:36;;;;;;;40.80;25.40;;;;;;;9.42;73.64;99303.85;113069;1196;107466;-74
2021/09/23 06:03:04;;;;;;;42.60;24.40;;;;;;;9.44;73.66;99310.80;113066;1196;98048;-71
2021/09/23 06:05:34;;;;;;;44.90;26.00;;;;;;;9.46;73.72;99306.77;112680;1196;96891;-70
2021/09/23 06:08:02;;;;;;;43.30;25.90;;;;;;;9.52;73.78;99306.39;112959;1197;111216;-70
2021/09/23 06:10:34;;;;;;;43.30;26.60;;;;;;;9.57;73.82;99299.04;112998;1196;95233;-70
2021/09/23 06:13:02;;;;;;;41.20;26.20;;;;;;;9.63;73.91;99295.24;113083;1197;107346;-70
2021/09/23 06:15:33;;;;;;;41.40;26.10;;;;;;;9.69;73.81;99296.80;113090;1195;97791;-71
2021/09/23 06:18:02;;;;;;;43.10;27.10;;;;;;;9.75;73.93;99292.89;113130;1195;97643;-72
2021/09/23 06:20:31;;;;;;;45.50;28.60;;;;;;;9.80;73.94;99285.11;113113;1196;111367;-70
2021/09/23 06:23:00;;;;;;;44.90;27.60;;;;;;;9.87;74.02;99279.04;113053;1195;98249;-70
2021/09/23 06:25:27;;;;;;;42.20;26.90;;;;;;;9.95;74.08;99276.73;112845;1196;107578;-70
2021/09/23 06:27:55;;;;;;;47.20;27.90;;;;;;;10.04;74.02;99274.68;113048;1197;95725;-69
2021/09/23 06:30:23;;;;;;;46.40;27.40;;;;;;;10.11;73.97;99273.67;113075;1195;95712;-70
2021/09/23 06:32:51;;;;;;;42.40;25.70;;;;;;;10.19;74.08;99275.10;112832;1196;111193;-70
2021/09/23 06:35:19;;;;;;;49.50;28.80;;;;;;;10.26;74.03;99274.07;113072;1196;95713;-70
2021/09/23 06:37:49;;;;;;;47.60;30.20;;;;;;;10.34;74.08;99272.69;113133;1195;107490;-70
2021/09/23 06:40:17;;;;;;;45.40;30.10;;;;;;;10.42;74.20;99275.55;113196;1196;97766;-70
2021/09/23 06:42:47;;;;;;;50.70;31.60;;;;;;;10.51;74.32;99283.09;113192;1195;97676;-71
2021/09/23 06:45:16;;;;;;;47.60;29.50;;;;;;;10.59;74.23;99282.88;113158;1196;112243;-70
2021/09/23 06:47:44;;;;;;;46.40;27.90;;;;;;;10.66;74.16;99276.73;113142;1196;97669;-70
2021/09/23 06:50:15;;;;;;;50.10;29.70;;;;;;;10.70;74.18;99281.56;113142;1195;107553;-71
2021/09/23 06:52:43;;;;;;;44.10;28.00;;;;;;;10.79;74.25;99281.03;113082;1195;98416;-71
2021/09/23 06:55:13;;;;;;;48.00;28.80;;;;;;;10.85;74.26;99276.64;113106;1196;97527;-71
2021/09/23 06:57:41;;;;;;;44.60;27.10;;;;;;;10.93;74.24;99271.13;113027;1196;111245;-71
2021/09/23 07:00:11;;;;;;;39.80;25.70;;;;;;;11.03;74.17;99264.59;112909;1197;95785;-71
2021/09/23 07:02:39;;;;;;;42.10;25.60;;;;;;;11.10;74.12;99262.10;112938;1197;107159;-68
2021/09/23 07:05:09;;;;;;;44.70;27.20;;;;;;;11.19;74.07;99255.29;112715;1196;97716;-71
2021/09/23 07:07:37;;;;;;;44.40;26.10;;;;;;;11.29;74.18;99256.80;113041;1197;97655;-72
2021/09/23 07:10:08;;;;;;;42.10;25.70;;;;;;;11.36;74.24;99248.04;112975;1196;109808;-71
2021/09/23 07:12:38;;;;;;;42.90;27.20;;;;;;;11.39;74.19;99245.84;113010;1196;97091;-72
2021/09/23 07:15:08;;;;;;;44.70;27.90;;;;;;;11.43;74.24;99244.51;112973;1195;107623;-72
2021/09/23 07:17:36;;;;;;;46.20;28.90;;;;;;;11.44;74.17;99245.27;113132;1196;95035;-72
2021/09/23 07:20:09;;;;;;;46.30;28.40;;;;;;;11.39;74.25;99247.83;113016;1196;95064;-72
2021/09/23 07:22:37;;;;;;;43.10;28.30;;;;;;;11.39;74.07;99243.72;113113;1196;111262;-72
2021/09/23 07:25:07;;;;;;;45.70;28.40;;;;;;;11.47;74.25;99239.05;113038;1195;95746;-72
2021/09/23 07:27:35;;;;;;;44.20;27.90;;;;;;;11.56;74.28;99238.21;113104;1195;108761;-73
2021/09/23 07:30:08;;;;;;;38.00;24.50;;;;;;;11.66;74.24;99241.91;112941;1196;97647;-72
2021/09/23 07:32:36;;;;;;;38.60;25.40;;;;;;;11.74;74.36;99237.56;112786;1196;97636;-72
2021/09/23 07:35:04;;;;;;;37.80;23.50;;;;;;;11.81;74.26;99239.39;112952;1196;111125;-71
2021/09/23 07:37:33;;;;;;;37.60;22.60;;;;;;;11.92;74.24;99247.94;113131;1195;97615;-72
2021/09/23 07:40:08;;;;;;;31.70;19.70;;;;;;;12.01;74.33;99254.95;113114;1195;107323;-72
2021/09/23 07:42:38;;;;;;;32.80;20.20;;;;;;;12.04;74.09;99254.20;112903;1196;97690;-74
2021/09/23 07:45:09;;;;;;;36.90;21.50;;;;;;;12.09;74.16;99258.65;113238;1195;98350;-74
2021/09/23 07:47:37;;;;;;;32.10;20.80;;;;;;;12.16;74.20;99261.50;113002;1196;111670;-74
2021/09/23 07:50:08;;;;;;;34.30;21.20;;;;;;;12.18;74.14;99259.02;112889;1196;97726;-75
2021/09/23 07:52:35;;;;;;;35.80;20.70;;;;;;;12.23;74.12;99255.08;112944;1196;107253;-73
2021/09/23 07:55:05;;;;;;;33.90;19.00;;;;;;;12.30;74.14;99252.61;112832;1197;95146;-73
2021/09/23 07:57:35;;;;;;;35.50;22.10;;;;;;;12.33;74.10;99251.48;112953;1196;97630;-71
2021/09/23 08:00:06;;;;;;;33.40;19.70;;;;;;;12.37;73.88;99251.34;112945;1196;111845;-73
2021/09/23 08:02:34;;;;;;;33.90;20.50;;;;;;;12.37;73.95;99249.09;113187;1196;97583;-73
2021/09/23 08:05:04;;;;;;;35.00;21.00;;;;;;;12.34;74.03;99247.34;113121;1195;107490;-74
2021/09/23 08:07:32;;;;;;;32.20;18.80;;;;;;;12.37;74.06;99244.04;113199;1195;97988;-73
2021/09/23 08:10:00;;;;;;;30.50;18.20;;;;;;;12.35;73.86;99233.55;113142;1196;97628;-73
2021/09/23 08:12:28;;;;;;;32.40;20.20;;;;;;;12.27;73.27;99234.20;113153;1196;111229;-73
2021/09/23 08:14:57;;;;;;;31.10;18.80;;;;;;;12.20;73.52;99232.72;113187;1195;97636;-72
2021/09/23 08:17:24;;;;;;;34.00;18.90;;;;;;;12.31;73.63;99228.02;113174;1196;107642;-72
2021/09/23 08:19:53;;;;;;;30.60;17.10;;;;;;;12.68;73.84;99222.14;113233;1196;97665;-73
2021/09/23 08:22:21;;;;;;;30.90;18.60;;;;;;;12.99;73.85;99211.44;113232;1195;95029;-74
2021/09/23 08:24:52;;;;;;;29.30;17.30;;;;;;;13.19;73.97;99210.04;113191;1195;111198;-73
2021/09/23 08:27:20;;;;;;;29.40;17.10;;;;;;;13.36;73.88;99206.55;113215;1196;96280;-73
2021/09/23 08:29:48;;;;;;;29.00;16.50;;;;;;;13.59;73.96;99198.27;113186;1196;107487;-73
2021/09/23 08:32:20;;;;;;;28.20;17.00;;;;;;;13.71;73.70;99197.25;113169;1196;97512;-74
2021/09/23 08:34:51;;;;;;;28.70;16.90;;;;;;;13.64;73.67;99188.95;114473;1195;95489;-73
2021/09/23 08:37:19;;;;;;;28.10;15.70;;;;;;;13.51;73.52;99185.02;112866;1190;111690;-74
2021/09/23 08:39:48;;;;;;;27.00;15.40;;;;;;;13.43;73.55;99183.88;114860;1195;95500;-73
2021/09/23 08:42:16;;;;;;;27.70;15.80;;;;;;;13.32;73.35;99184.23;114925;1195;107564;-73
2021/09/23 08:44:44;;;;;;;25.70;14.70;;;;;;;13.27;73.34;99187.27;114912;1195;95670;-74
2021/09/23 08:47:12;;;;;;;29.20;16.20;;;;;;;13.28;73.28;99189.04;113491;1195;95161;-74
2021/09/23 08:49:40;;;;;;;26.20;15.60;;;;;;;13.33;72.73;99191.27;112948;1196;111460;-73
2021/09/23 08:52:07;;;;;;;25.20;15.30;;;;;;;13.28;73.12;99187.40;113215;1195;97245;-77
2021/09/23 08:54:35;;;;;;;26.70;15.00;;;;;;;13.23;73.11;99180.70;113178;1196;107512;-73
2021/09/23 08:57:06;;;;;;;23.80;13.90;;;;;;;13.18;73.15;99185.74;112916;1196;97605;-75
2021/09/23 08:59:36;;;;;;;23.90;14.10;;;;;;;13.12;73.17;99191.77;113155;1193;95029;-72
2021/09/23 09:02:27;;;;;;;26.10;13.40;;;;;;;13.06;73.11;99196.15;113011;1196;111148;-72
2021/09/23 09:04:59;;;;;;;26.00;14.20;;;;;;;12.95;73.07;99199.48;112863;1196;97591;-72
2021/09/23 09:07:29;;;;;;;26.70;14.30;;;;;;;12.88;72.99;99199.04;112848;1196;106744;-73
2021/09/23 09:10:12;;;;;;;25.70;13.10;;;;;;;12.82;73.02;99197.67;112869;1180;95323;-72
2021/09/23 09:12:41;;;;;;;25.90;14.00;;;;;;;12.82;73.04;99201.64;112922;1193;95141;-72
2021/09/23 09:15:14;;;;;;;23.90;12.30;;;;;;;12.83;73.13;99202.43;112895;1197;110678;-73
2021/09/23 09:17:42;;;;;;;24.20;13.70;;;;;;;12.83;72.86;99195.34;112843;1196;95251;-72
2021/09/23 09:20:12;;;;;;;21.90;12.00;;;;;;;12.83;72.94;99190.88;112865;1196;107493;-72
2021/09/23 09:22:41;;;;;;;23.40;13.10;;;;;;;12.85;72.93;99184.80;112959;1196;97686;-73
2021/09/23 09:25:13;;;;;;;22.30;12.60;;;;;;;12.92;72.95;99185.52;112933;1196;95086;-74
2021/09/23 09:27:46;;;;;;;24.70;13.00;;;;;;;12.98;72.97;99185.76;112876;1196;111149;-73
2021/09/23 09:30:22;;;;;;;25.40;14.50;;;;;;;13.02;72.94;99178.48;112918;1196;97687;-73
2021/09/23 09:32:57;;;;;;;23.80;11.80;;;;;;;13.10;73.01;99178.55;112847;1196;106601;-72
2021/09/23 09:35:34;;;;;;;24.70;12.30;;;;;;;13.17;72.93;99173.70;112665;1197;97576;-73
2021/09/23 09:38:07;;;;;;;25.20;12.50;;;;;;;13.27;73.00;99172.20;112899;1195;97671;-73
2021/09/23 09:40:41;;;;;;;24.90;13.10;;;;;;;13.27;72.82;99172.02;112874;1196;111040;-72
2021/09/23 09:43:17;;;;;;;22.50;12.50;;;;;;;13.24;72.57;99171.34;112814;1196;97547;-73
2021/09/23 09:45:49;;;;;;;22.30;12.60;;;;;;;13.22;72.60;99170.42;113046;1195;107557;-73
2021/09/23 09:48:28;;;;;;;27.80;12.60;;;;;;;13.22;72.57;99175.25;112833;1196;97569;-73
2021/09/23 09:51:03;;;;;;;23.40;12.40;;;;;;;13.20;72.46;99171.50;112872;1196;97508;-73
2021/09/23 09:53:31;;;;;;;22.00;10.90;;;;;;;13.20;72.55;99173.81;112829;1196;111149;-72
2021/09/23 09:55:59;;;;;;;22.00;10.80;;;;;;;13.20;72.58;99168.48;113225;1196;97564;-73
2021/09/23 09:58:27;;;;;;;20.20;10.40;;;;;;;13.18;71.87;99170.61;113146;1195;106615;-71
2021/09/23 10:00:55;;;;;;;21.90;10.60;;;;;;;13.09;71.60;99164.54;113227;1196;97576;-74
2021/09/23 10:03:28;;;;;;;22.40;10.10;;;;;;;13.04;71.68;99162.46;113192;1196;97650;-74
2021/09/23 10:06:00;;;;;;;24.50;11.40;;;;;;;13.03;71.73;99163.27;113169;1195;110193;-73
2021/09/23 10:08:28;;;;;;;21.00;9.40;;;;;;;13.02;72.02;99162.00;113185;1196;97696;-73
2021/09/23 10:10:57;;;;;;;20.00;9.70;;;;;;;13.01;71.95;99161.67;113174;1196;108547;-74
2021/09/23 10:13:28;;;;;;;20.50;9.60;;;;;;;13.02;71.92;99158.38;113084;1196;95466;-75
2021/09/23 10:16:00;;;;;;;23.10;9.70;;;;;;;13.03;71.88;99154.20;113213;1195;95397;-72
2021/09/23 10:18:28;;;;;;;19.90;9.00;;;;;;;13.03;71.91;99151.02;113031;1196;111182;-74
2021/09/23 10:20:58;;;;;;;22.00;9.30;;;;;;;13.02;71.88;99152.36;113012;1195;98232;-71
2021/09/23 10:23:29;;;;;;;23.90;9.60;;;;;;;13.01;71.71;99156.31;113007;1195;107478;-72
2021/09/23 10:25:59;;;;;;;19.30;8.90;;;;;;;12.97;71.59;99144.89;112810;1196;98221;-74
2021/09/23 10:28:28;;;;;;;19.90;8.50;;;;;;;12.98;71.80;99136.43;113143;1196;97655;-73
2021/09/23 10:30:57;;;;;;;20.80;9.50;;;;;;;13.02;71.54;99132.73;113157;1196;111206;-74
2021/09/23 10:33:26;;;;;;;15.90;7.80;;;;;;;13.06;71.78;99134.39;112987;1196;97649;-73
2021/09/23 10:35:55;;;;;;;18.80;7.20;;;;;;;13.13;71.92;99133.43;113086;1196;108072;-72
2021/09/23 10:38:23;;;;;;;18.20;7.60;;;;;;;13.18;71.47;99132.46;113069;1195;97665;-74
2021/09/23 10:40:51;;;;;;;17.80;7.40;;;;;;;13.21;71.74;99125.52;113150;1195;94970;-74
2021/09/23 10:43:20;;;;;;;16.80;6.10;;;;;;;13.27;71.78;99123.58;112870;1196;111262;-73
2021/09/23 10:45:49;;;;;;;17.50;7.10;;;;;;;13.28;71.69;99117.41;113007;1195;97634;-72
2021/09/23 10:48:22;;;;;;;18.20;6.70;;;;;;;13.33;71.84;99111.35;112868;1196;106181;-73
2021/09/23 10:50:51;;;;;;;15.60;6.40;;;;;;;13.34;71.75;99103.35;112806;1196;97774;-73
2021/09/23 10:53:19;;;;;;;14.60;6.00;;;;;;;13.34;71.59;99097.39;112973;1195;97650;-73
2021/09/23 10:55:49;;;;;;;17.80;6.80;;;;;;;13.34;71.61;99094.32;112843;1196;111184;-72
2021/09/23 10:58:20;;;;;;;15.60;6.70;;;;;;;13.36;71.63;99087.00;112752;1196;95042;-72
2021/09/23 11:00:48;;;;;;;15.70;6.90;;;;;;;13.40;71.58;99080.48;113149;1195;107539;-73
2021/09/23 11:03:18;;;;;;;19.30;6.30;;;;;;;13.44;71.67;99079.11;112822;1196;97647;-73
2021/09/23 11:05:48;;;;;;;16.60;6.10;;;;;;;13.50;71.75;99074.85;112802;1197;95056;-73
2021/09/23 11:08:18;;;;;;;16.90;6.50;;;;;;;13.50;71.68;99072.73;112691;1197;111194;-72
2021/09/23 11:10:49;;;;;;;18.90;6.80;;;;;;;13.47;71.46;99067.11;112766;1196;96409;-73
2021/09/23 11:13:18;;;;;;;18.70;7.20;;;;;;;13.40;71.34;99065.32;113113;1196;107517;-73
2021/09/23 11:15:48;;;;;;;15.60;6.60;;;;;;;13.36;71.34;99060.29;112986;1196;97508;-73
2021/09/23 11:18:18;;;;;;;19.70;6.70;;;;;;;13.35;71.32;99055.41;112975;1196;95065;-73
2021/09/23 11:20:48;;;;;;;20.60;7.30;;;;;;;13.35;71.35;99047.95;112838;1196;110943;-74
2021/09/23 11:23:19;;;;;;;16.70;6.00;;;;;;;13.36;71.29;99045.86;112948;1196;96065;-74